sensor_id;sensor_type;location;lat;lon;timestamp;P1;durP1;ratioP1;P2;durP2;ratioP2
3054;SDS011;1537;52.018;8.542;2022-12-18T00:02:51;41.63;;;29.67;;
3054;SDS011;1537;52.018;8.542;2022-12-18T00:06:17;45.00;;;26.83;;
3054;SDS011;1537;52.018;8.542;2022-12-18T00:09:42;42.10;;;28.10;;
3054;SDS011;1537;52.018;8.542;2022-12-18T00:13:06;39.50;;;28.00;;
3054;SDS011;1537;52.018;8.542;2022-12-18T00:16:33;46.20;;;30.40;;
3054;SDS011;1537;52.018;8.542;2022-12-18T00:19:59;45.03;;;30.03;;
3054;SDS011;1537;52.018;8.542;2022-12-18T00:23:23;44.90;;;28.30;;
3054;SDS011;1537;52.018;8.542;2022-12-18T00:26:47;40.93;;;28.80;;
3054;SDS011;1537;52.018;8.542;2022-12-18T00:30:11;37.17;;;25.80;;
3054;SDS011;1537;52.018;8.542;2022-12-18T00:33:40;45.30;;;30.53;;
3054;SDS011;1537;52.018;8.542;2022-12-18T00:37:07;37.20;;;24.53;;
3054;SDS011;1537;52.018;8.542;2022-12-18T00:40:30;39.27;;;27.20;;
3054;SDS011;1537;52.018;8.542;2022-12-18T00:43:54;45.20;;;28.93;;
3054;SDS011;1537;52.018;8.542;2022-12-18T00:47:18;37.80;;;23.67;;
3054;SDS011;1537;52.018;8.542;2022-12-18T00:50:47;38.03;;;23.77;;
3054;SDS011;1537;52.018;8.542;2022-12-18T00:54:11;34.10;;;25.90;;
3054;SDS011;1537;52.018;8.542;2022-12-18T00:57:35;37.70;;;26.17;;
3054;SDS011;1537;52.018;8.542;2022-12-18T01:01:01;41.50;;;28.67;;
3054;SDS011;1537;52.018;8.542;2022-12-18T01:04:30;54.27;;;28.23;;
3054;SDS011;1537;52.018;8.542;2022-12-18T01:07:56;46.93;;;28.23;;
3054;SDS011;1537;52.018;8.542;2022-12-18T01:11:21;39.00;;;25.50;;
3054;SDS011;1537;52.018;8.542;2022-12-18T01:14:46;38.63;;;27.67;;
3054;SDS011;1537;52.018;8.542;2022-12-18T01:18:13;40.43;;;25.80;;
3054;SDS011;1537;52.018;8.542;2022-12-18T01:21:38;37.37;;;25.20;;
3054;SDS011;1537;52.018;8.542;2022-12-18T01:25:03;38.40;;;25.63;;
3054;SDS011;1537;52.018;8.542;2022-12-18T01:28:29;33.60;;;24.50;;
3054;SDS011;1537;52.018;8.542;2022-12-18T01:31:54;36.73;;;25.13;;
3054;SDS011;1537;52.018;8.542;2022-12-18T01:35:19;38.87;;;24.40;;
3054;SDS011;1537;52.018;8.542;2022-12-18T01:38:45;33.13;;;23.17;;
3054;SDS011;1537;52.018;8.542;2022-12-18T01:42:12;35.60;;;24.73;;
3054;SDS011;1537;52.018;8.542;2022-12-18T01:45:42;34.17;;;24.53;;
3054;SDS011;1537;52.018;8.542;2022-12-18T01:49:10;34.53;;;22.70;;
3054;SDS011;1537;52.018;8.542;2022-12-18T01:52:34;33.97;;;23.13;;
3054;SDS011;1537;52.018;8.542;2022-12-18T01:56:02;31.97;;;22.27;;
3054;SDS011;1537;52.018;8.542;2022-12-18T01:59:28;37.00;;;25.83;;
3054;SDS011;1537;52.018;8.542;2022-12-18T02:02:54;33.80;;;22.20;;
3054;SDS011;1537;52.018;8.542;2022-12-18T02:06:20;31.83;;;22.57;;
3054;SDS011;1537;52.018;8.542;2022-12-18T02:09:54;37.93;;;21.50;;
3054;SDS011;1537;52.018;8.542;2022-12-18T02:13:25;34.67;;;22.77;;
3054;SDS011;1537;52.018;8.542;2022-12-18T02:17:01;32.90;;;21.60;;
3054;SDS011;1537;52.018;8.542;2022-12-18T02:20:30;40.03;;;23.20;;
3054;SDS011;1537;52.018;8.542;2022-12-18T02:24:01;29.37;;;21.43;;
3054;SDS011;1537;52.018;8.542;2022-12-18T02:27:37;34.90;;;22.93;;
3054;SDS011;1537;52.018;8.542;2022-12-18T02:31:06;29.07;;;21.10;;
3054;SDS011;1537;52.018;8.542;2022-12-18T02:34:33;32.77;;;21.10;;
3054;SDS011;1537;52.018;8.542;2022-12-18T02:38:05;34.83;;;20.40;;
3054;SDS011;1537;52.018;8.542;2022-12-18T02:41:31;31.97;;;18.57;;
3054;SDS011;1537;52.018;8.542;2022-12-18T02:44:57;29.10;;;19.53;;
3054;SDS011;1537;52.018;8.542;2022-12-18T02:48:25;35.30;;;19.20;;
3054;SDS011;1537;52.018;8.542;2022-12-18T02:51:55;32.00;;;20.70;;
3054;SDS011;1537;52.018;8.542;2022-12-18T02:55:28;26.43;;;19.07;;
3054;SDS011;1537;52.018;8.542;2022-12-18T02:59:03;29.50;;;16.73;;
3054;SDS011;1537;52.018;8.542;2022-12-18T03:02:41;25.40;;;18.57;;
3054;SDS011;1537;52.018;8.542;2022-12-18T03:06:10;30.33;;;19.50;;
3054;SDS011;1537;52.018;8.542;2022-12-18T03:09:39;25.80;;;18.53;;
3054;SDS011;1537;52.018;8.542;2022-12-18T03:13:10;25.47;;;18.13;;
3054;SDS011;1537;52.018;8.542;2022-12-18T03:16:40;27.30;;;20.00;;
3054;SDS011;1537;52.018;8.542;2022-12-18T03:20:11;26.50;;;17.37;;
3054;SDS011;1537;52.018;8.542;2022-12-18T03:23:39;33.97;;;20.53;;
3054;SDS011;1537;52.018;8.542;2022-12-18T03:27:10;27.43;;;18.03;;
3054;SDS011;1537;52.018;8.542;2022-12-18T03:30:36;31.73;;;19.00;;
3054;SDS011;1537;52.018;8.542;2022-12-18T03:34:03;32.03;;;19.37;;
3054;SDS011;1537;52.018;8.542;2022-12-18T03:37:39;25.53;;;18.20;;
3054;SDS011;1537;52.018;8.542;2022-12-18T03:41:06;26.13;;;17.50;;
3054;SDS011;1537;52.018;8.542;2022-12-18T03:44:57;29.83;;;17.93;;
3054;SDS011;1537;52.018;8.542;2022-12-18T03:48:28;29.80;;;17.73;;
3054;SDS011;1537;52.018;8.542;2022-12-18T03:52:02;27.07;;;17.13;;
3054;SDS011;1537;52.018;8.542;2022-12-18T03:55:32;31.97;;;19.77;;
3054;SDS011;1537;52.018;8.542;2022-12-18T03:59:00;28.63;;;18.80;;
3054;SDS011;1537;52.018;8.542;2022-12-18T04:02:27;30.37;;;19.30;;
3054;SDS011;1537;52.018;8.542;2022-12-18T04:05:56;34.10;;;19.37;;
3054;SDS011;1537;52.018;8.542;2022-12-18T04:09:23;29.00;;;16.60;;
3054;SDS011;1537;52.018;8.542;2022-12-18T04:12:49;24.90;;;18.20;;
3054;SDS011;1537;52.018;8.542;2022-12-18T04:16:13;25.57;;;16.30;;
3054;SDS011;1537;52.018;8.542;2022-12-18T04:19:44;26.10;;;18.67;;
3054;SDS011;1537;52.018;8.542;2022-12-18T04:23:08;31.10;;;18.70;;
3054;SDS011;1537;52.018;8.542;2022-12-18T04:26:33;24.27;;;17.73;;
3054;SDS011;1537;52.018;8.542;2022-12-18T04:30:10;24.20;;;17.27;;
3054;SDS011;1537;52.018;8.542;2022-12-18T04:33:35;26.10;;;16.73;;
3054;SDS011;1537;52.018;8.542;2022-12-18T04:37:01;26.00;;;17.13;;
3054;SDS011;1537;52.018;8.542;2022-12-18T04:40:26;25.80;;;16.27;;
3054;SDS011;1537;52.018;8.542;2022-12-18T04:43:50;26.03;;;17.20;;
3054;SDS011;1537;52.018;8.542;2022-12-18T04:47:15;22.63;;;16.53;;
3054;SDS011;1537;52.018;8.542;2022-12-18T04:50:40;25.53;;;15.90;;
3054;SDS011;1537;52.018;8.542;2022-12-18T04:54:04;23.83;;;16.67;;
3054;SDS011;1537;52.018;8.542;2022-12-18T04:57:28;30.47;;;17.17;;
3054;SDS011;1537;52.018;8.542;2022-12-18T05:00:52;24.93;;;16.40;;
3054;SDS011;1537;52.018;8.542;2022-12-18T05:04:22;29.27;;;17.10;;
3054;SDS011;1537;52.018;8.542;2022-12-18T05:07:48;29.27;;;17.97;;
3054;SDS011;1537;52.018;8.542;2022-12-18T05:11:13;22.27;;;15.23;;
3054;SDS011;1537;52.018;8.542;2022-12-18T05:14:38;27.93;;;17.77;;
3054;SDS011;1537;52.018;8.542;2022-12-18T05:18:02;24.73;;;15.43;;
3054;SDS011;1537;52.018;8.542;2022-12-18T05:21:28;23.80;;;16.60;;
3054;SDS011;1537;52.018;8.542;2022-12-18T05:24:53;23.60;;;15.43;;
3054;SDS011;1537;52.018;8.542;2022-12-18T05:28:17;23.87;;;15.57;;
3054;SDS011;1537;52.018;8.542;2022-12-18T05:31:41;26.90;;;15.33;;
3054;SDS011;1537;52.018;8.542;2022-12-18T05:35:09;24.27;;;16.07;;
3054;SDS011;1537;52.018;8.542;2022-12-18T05:38:38;25.20;;;16.20;;
3054;SDS011;1537;52.018;8.542;2022-12-18T05:42:02;28.57;;;17.30;;
3054;SDS011;1537;52.018;8.542;2022-12-18T05:45:26;24.10;;;15.07;;
3054;SDS011;1537;52.018;8.542;2022-12-18T05:48:50;24.30;;;14.00;;
3054;SDS011;1537;52.018;8.542;2022-12-18T05:52:14;18.47;;;14.60;;
3054;SDS011;1537;52.018;8.542;2022-12-18T05:55:41;27.70;;;17.00;;
3054;SDS011;1537;52.018;8.542;2022-12-18T05:59:07;28.57;;;16.37;;
3054;SDS011;1537;52.018;8.542;2022-12-18T06:02:35;21.23;;;15.10;;
3054;SDS011;1537;52.018;8.542;2022-12-18T06:05:59;29.00;;;16.80;;
3054;SDS011;1537;52.018;8.542;2022-12-18T06:09:24;25.73;;;16.00;;
3054;SDS011;1537;52.018;8.542;2022-12-18T06:12:49;24.50;;;16.00;;
3054;SDS011;1537;52.018;8.542;2022-12-18T06:16:13;24.33;;;15.87;;
3054;SDS011;1537;52.018;8.542;2022-12-18T06:19:40;26.63;;;16.43;;
3054;SDS011;1537;52.018;8.542;2022-12-18T06:23:04;26.13;;;17.43;;
3054;SDS011;1537;52.018;8.542;2022-12-18T06:26:28;28.17;;;16.53;;
3054;SDS011;1537;52.018;8.542;2022-12-18T06:29:56;27.90;;;17.83;;
3054;SDS011;1537;52.018;8.542;2022-12-18T06:33:21;24.57;;;17.87;;
3054;SDS011;1537;52.018;8.542;2022-12-18T06:36:49;31.07;;;17.97;;
3054;SDS011;1537;52.018;8.542;2022-12-18T06:40:13;23.80;;;16.17;;
3054;SDS011;1537;52.018;8.542;2022-12-18T06:43:37;26.10;;;16.00;;
3054;SDS011;1537;52.018;8.542;2022-12-18T06:47:04;28.60;;;16.77;;
3054;SDS011;1537;52.018;8.542;2022-12-18T06:50:27;22.17;;;12.67;;
3054;SDS011;1537;52.018;8.542;2022-12-18T06:53:54;28.30;;;16.57;;
3054;SDS011;1537;52.018;8.542;2022-12-18T06:57:18;28.47;;;17.10;;
3054;SDS011;1537;52.018;8.542;2022-12-18T07:00:45;31.13;;;18.63;;
3054;SDS011;1537;52.018;8.542;2022-12-18T07:04:11;25.47;;;16.57;;
3054;SDS011;1537;52.018;8.542;2022-12-18T07:07:35;20.33;;;13.97;;
3054;SDS011;1537;52.018;8.542;2022-12-18T07:11:02;25.20;;;16.27;;
3054;SDS011;1537;52.018;8.542;2022-12-18T07:14:31;25.57;;;16.37;;
3054;SDS011;1537;52.018;8.542;2022-12-18T07:17:59;25.30;;;16.10;;
3054;SDS011;1537;52.018;8.542;2022-12-18T07:21:25;21.97;;;15.23;;
3054;SDS011;1537;52.018;8.542;2022-12-18T07:24:48;21.20;;;14.10;;
3054;SDS011;1537;52.018;8.542;2022-12-18T07:28:12;23.07;;;14.50;;
3054;SDS011;1537;52.018;8.542;2022-12-18T07:31:38;26.10;;;15.83;;
3054;SDS011;1537;52.018;8.542;2022-12-18T07:35:02;24.67;;;15.73;;
3054;SDS011;1537;52.018;8.542;2022-12-18T07:38:28;24.83;;;15.97;;
3054;SDS011;1537;52.018;8.542;2022-12-18T07:41:52;20.87;;;13.40;;
3054;SDS011;1537;52.018;8.542;2022-12-18T07:45:30;22.43;;;14.83;;
3054;SDS011;1537;52.018;8.542;2022-12-18T07:48:54;21.33;;;13.77;;
3054;SDS011;1537;52.018;8.542;2022-12-18T07:52:18;29.60;;;15.37;;
3054;SDS011;1537;52.018;8.542;2022-12-18T07:55:48;23.70;;;15.00;;
3054;SDS011;1537;52.018;8.542;2022-12-18T07:59:37;24.30;;;15.13;;
3054;SDS011;1537;52.018;8.542;2022-12-18T08:03:01;28.10;;;14.80;;
3054;SDS011;1537;52.018;8.542;2022-12-18T08:06:26;24.90;;;16.50;;
3054;SDS011;1537;52.018;8.542;2022-12-18T08:09:50;22.53;;;14.57;;
3054;SDS011;1537;52.018;8.542;2022-12-18T08:13:18;19.50;;;16.00;;
3054;SDS011;1537;52.018;8.542;2022-12-18T08:16:45;28.40;;;16.73;;
3054;SDS011;1537;52.018;8.542;2022-12-18T08:20:10;23.00;;;16.40;;
3054;SDS011;1537;52.018;8.542;2022-12-18T08:23:36;26.17;;;15.80;;
3054;SDS011;1537;52.018;8.542;2022-12-18T08:27:04;21.53;;;13.80;;
3054;SDS011;1537;52.018;8.542;2022-12-18T08:34:42;24.13;;;16.43;;
3054;SDS011;1537;52.018;8.542;2022-12-18T08:38:06;20.50;;;14.83;;
3054;SDS011;1537;52.018;8.542;2022-12-18T08:41:30;22.80;;;16.40;;
3054;SDS011;1537;52.018;8.542;2022-12-18T08:44:55;23.77;;;15.47;;
3054;SDS011;1537;52.018;8.542;2022-12-18T08:48:20;23.23;;;15.57;;
3054;SDS011;1537;52.018;8.542;2022-12-18T08:51:44;18.93;;;14.13;;
3054;SDS011;1537;52.018;8.542;2022-12-18T08:55:08;20.97;;;15.47;;
3054;SDS011;1537;52.018;8.542;2022-12-18T08:58:42;21.57;;;15.77;;
3054;SDS011;1537;52.018;8.542;2022-12-18T09:02:05;21.57;;;14.83;;
3054;SDS011;1537;52.018;8.542;2022-12-18T09:05:32;21.97;;;14.63;;
3054;SDS011;1537;52.018;8.542;2022-12-18T09:08:57;20.83;;;15.07;;
3054;SDS011;1537;52.018;8.542;2022-12-18T09:12:21;23.47;;;14.83;;
3054;SDS011;1537;52.018;8.542;2022-12-18T09:15:47;24.67;;;15.27;;
3054;SDS011;1537;52.018;8.542;2022-12-18T09:19:12;22.87;;;14.97;;
3054;SDS011;1537;52.018;8.542;2022-12-18T09:22:39;24.50;;;14.83;;
3054;SDS011;1537;52.018;8.542;2022-12-18T09:26:03;19.30;;;13.80;;
3054;SDS011;1537;52.018;8.542;2022-12-18T09:29:27;24.20;;;16.40;;
3054;SDS011;1537;52.018;8.542;2022-12-18T09:32:51;28.40;;;17.80;;
3054;SDS011;1537;52.018;8.542;2022-12-18T09:36:17;26.40;;;16.70;;
3054;SDS011;1537;52.018;8.542;2022-12-18T09:39:44;27.13;;;16.70;;
3054;SDS011;1537;52.018;8.542;2022-12-18T09:43:09;26.53;;;15.70;;
3054;SDS011;1537;52.018;8.542;2022-12-18T09:46:39;19.93;;;14.73;;
3054;SDS011;1537;52.018;8.542;2022-12-18T09:50:17;18.90;;;13.47;;
3054;SDS011;1537;52.018;8.542;2022-12-18T09:53:53;20.87;;;12.60;;
3054;SDS011;1537;52.018;8.542;2022-12-18T09:57:24;25.60;;;14.87;;
3054;SDS011;1537;52.018;8.542;2022-12-18T10:00:50;21.47;;;13.60;;
3054;SDS011;1537;52.018;8.542;2022-12-18T10:04:16;18.00;;;13.60;;
3054;SDS011;1537;52.018;8.542;2022-12-18T10:07:47;19.90;;;12.83;;
3054;SDS011;1537;52.018;8.542;2022-12-18T10:11:22;17.23;;;11.87;;
3054;SDS011;1537;52.018;8.542;2022-12-18T10:14:57;19.23;;;14.30;;
3054;SDS011;1537;52.018;8.542;2022-12-18T10:18:28;19.27;;;14.27;;
3054;SDS011;1537;52.018;8.542;2022-12-18T10:22:01;20.67;;;14.50;;
3054;SDS011;1537;52.018;8.542;2022-12-18T10:25:34;20.13;;;15.23;;
3054;SDS011;1537;52.018;8.542;2022-12-18T10:29:04;15.07;;;12.40;;
3054;SDS011;1537;52.018;8.542;2022-12-18T10:32:35;15.50;;;10.83;;
3054;SDS011;1537;52.018;8.542;2022-12-18T10:36:00;13.57;;;10.97;;
3054;SDS011;1537;52.018;8.542;2022-12-18T10:39:24;11.53;;;9.80;;
3054;SDS011;1537;52.018;8.542;2022-12-18T10:42:55;13.50;;;10.07;;
3054;SDS011;1537;52.018;8.542;2022-12-18T10:46:35;14.20;;;10.77;;
3054;SDS011;1537;52.018;8.542;2022-12-18T10:50:10;13.50;;;9.80;;
3054;SDS011;1537;52.018;8.542;2022-12-18T10:53:51;12.70;;;9.37;;
3054;SDS011;1537;52.018;8.542;2022-12-18T10:57:19;14.97;;;9.70;;
3054;SDS011;1537;52.018;8.542;2022-12-18T11:01:01;14.27;;;9.67;;
3054;SDS011;1537;52.018;8.542;2022-12-18T11:04:28;12.53;;;8.60;;
3054;SDS011;1537;52.018;8.542;2022-12-18T11:07:54;12.00;;;8.40;;
3054;SDS011;1537;52.018;8.542;2022-12-18T11:11:20;14.20;;;10.17;;
3054;SDS011;1537;52.018;8.542;2022-12-18T11:14:45;10.07;;;7.53;;
3054;SDS011;1537;52.018;8.542;2022-12-18T11:18:16;11.00;;;8.67;;
3054;SDS011;1537;52.018;8.542;2022-12-18T11:21:41;13.50;;;9.57;;
3054;SDS011;1537;52.018;8.542;2022-12-18T11:25:16;14.00;;;9.03;;
3054;SDS011;1537;52.018;8.542;2022-12-18T11:29:07;10.30;;;8.10;;
3054;SDS011;1537;52.018;8.542;2022-12-18T11:32:34;14.50;;;9.27;;
3054;SDS011;1537;52.018;8.542;2022-12-18T11:36:00;13.70;;;9.47;;
3054;SDS011;1537;52.018;8.542;2022-12-18T11:39:30;15.07;;;9.37;;
3054;SDS011;1537;52.018;8.542;2022-12-18T11:43:02;13.17;;;8.83;;
3054;SDS011;1537;52.018;8.542;2022-12-18T11:46:32;13.73;;;9.57;;
3054;SDS011;1537;52.018;8.542;2022-12-18T11:50:00;10.60;;;8.10;;
3054;SDS011;1537;52.018;8.542;2022-12-18T11:53:33;13.90;;;8.97;;
3054;SDS011;1537;52.018;8.542;2022-12-18T11:57:02;14.53;;;9.87;;
3054;SDS011;1537;52.018;8.542;2022-12-18T12:00:33;13.47;;;8.23;;
3054;SDS011;1537;52.018;8.542;2022-12-18T12:04:05;14.47;;;9.70;;
3054;SDS011;1537;52.018;8.542;2022-12-18T12:07:47;12.90;;;9.63;;
3054;SDS011;1537;52.018;8.542;2022-12-18T12:11:19;14.47;;;8.53;;
3054;SDS011;1537;52.018;8.542;2022-12-18T12:14:55;16.70;;;9.63;;
3054;SDS011;1537;52.018;8.542;2022-12-18T12:18:29;13.00;;;9.67;;
3054;SDS011;1537;52.018;8.542;2022-12-18T12:22:00;12.10;;;7.87;;
3054;SDS011;1537;52.018;8.542;2022-12-18T12:25:33;13.20;;;9.50;;
3054;SDS011;1537;52.018;8.542;2022-12-18T12:29:17;12.90;;;8.70;;
3054;SDS011;1537;52.018;8.542;2022-12-18T12:32:55;11.73;;;8.77;;
3054;SDS011;1537;52.018;8.542;2022-12-18T12:36:37;14.00;;;8.40;;
3054;SDS011;1537;52.018;8.542;2022-12-18T12:40:07;13.67;;;8.50;;
3054;SDS011;1537;52.018;8.542;2022-12-18T12:43:58;12.83;;;6.07;;
3054;SDS011;1537;52.018;8.542;2022-12-18T12:47:26;14.20;;;8.20;;
3054;SDS011;1537;52.018;8.542;2022-12-18T12:50:53;13.33;;;7.80;;
3054;SDS011;1537;52.018;8.542;2022-12-18T12:54:21;12.37;;;8.60;;
3054;SDS011;1537;52.018;8.542;2022-12-18T12:57:48;11.50;;;7.50;;
3054;SDS011;1537;52.018;8.542;2022-12-18T13:01:23;12.83;;;8.03;;
3054;SDS011;1537;52.018;8.542;2022-12-18T13:04:56;13.17;;;9.43;;
3054;SDS011;1537;52.018;8.542;2022-12-18T13:08:23;13.37;;;7.27;;
3054;SDS011;1537;52.018;8.542;2022-12-18T13:11:53;12.57;;;7.80;;
3054;SDS011;1537;52.018;8.542;2022-12-18T13:15:44;12.57;;;9.03;;
3054;SDS011;1537;52.018;8.542;2022-12-18T13:19:18;10.10;;;7.70;;
3054;SDS011;1537;52.018;8.542;2022-12-18T13:22:48;12.30;;;9.40;;
3054;SDS011;1537;52.018;8.542;2022-12-18T13:29:55;12.10;;;7.10;;
3054;SDS011;1537;52.018;8.542;2022-12-18T13:33:30;11.33;;;7.43;;
3054;SDS011;1537;52.018;8.542;2022-12-18T13:37:40;14.87;;;8.73;;
3054;SDS011;1537;52.018;8.542;2022-12-18T13:41:20;10.77;;;7.00;;
3054;SDS011;1537;52.018;8.542;2022-12-18T13:44:46;11.17;;;8.50;;
3054;SDS011;1537;52.018;8.542;2022-12-18T13:48:22;12.43;;;7.10;;
3054;SDS011;1537;52.018;8.542;2022-12-18T13:51:48;11.43;;;7.23;;
3054;SDS011;1537;52.018;8.542;2022-12-18T13:55:15;10.20;;;6.97;;
3054;SDS011;1537;52.018;8.542;2022-12-18T13:58:42;15.50;;;7.47;;
3054;SDS011;1537;52.018;8.542;2022-12-18T14:02:11;9.30;;;6.70;;
3054;SDS011;1537;52.018;8.542;2022-12-18T14:05:39;11.93;;;7.83;;
3054;SDS011;1537;52.018;8.542;2022-12-18T14:09:06;12.53;;;8.03;;
3054;SDS011;1537;52.018;8.542;2022-12-18T14:12:44;11.57;;;8.23;;
3054;SDS011;1537;52.018;8.542;2022-12-18T14:16:24;13.47;;;9.87;;
3054;SDS011;1537;52.018;8.542;2022-12-18T14:19:49;10.80;;;7.40;;
3054;SDS011;1537;52.018;8.542;2022-12-18T14:23:28;10.57;;;7.63;;
3054;SDS011;1537;52.018;8.542;2022-12-18T14:26:54;9.70;;;7.73;;
3054;SDS011;1537;52.018;8.542;2022-12-18T14:30:36;13.83;;;8.60;;
3054;SDS011;1537;52.018;8.542;2022-12-18T14:34:01;10.33;;;7.07;;
3054;SDS011;1537;52.018;8.542;2022-12-18T14:37:25;12.13;;;7.83;;
3054;SDS011;1537;52.018;8.542;2022-12-18T14:40:55;12.27;;;8.07;;
3054;SDS011;1537;52.018;8.542;2022-12-18T14:44:20;9.90;;;6.70;;
3054;SDS011;1537;52.018;8.542;2022-12-18T14:47:44;10.60;;;7.47;;
3054;SDS011;1537;52.018;8.542;2022-12-18T14:51:14;11.30;;;8.10;;
3054;SDS011;1537;52.018;8.542;2022-12-18T14:54:40;12.03;;;8.47;;
3054;SDS011;1537;52.018;8.542;2022-12-18T14:58:11;9.87;;;7.20;;
3054;SDS011;1537;52.018;8.542;2022-12-18T15:01:38;13.43;;;7.60;;
3054;SDS011;1537;52.018;8.542;2022-12-18T15:05:16;9.73;;;6.33;;
3054;SDS011;1537;52.018;8.542;2022-12-18T15:08:41;12.40;;;6.70;;
3054;SDS011;1537;52.018;8.542;2022-12-18T15:12:15;10.47;;;6.60;;
3054;SDS011;1537;52.018;8.542;2022-12-18T15:15:49;11.00;;;6.30;;
3054;SDS011;1537;52.018;8.542;2022-12-18T15:19:14;9.20;;;6.23;;
3054;SDS011;1537;52.018;8.542;2022-12-18T15:22:39;12.30;;;6.90;;
3054;SDS011;1537;52.018;8.542;2022-12-18T15:26:04;9.67;;;6.60;;
3054;SDS011;1537;52.018;8.542;2022-12-18T15:29:31;11.10;;;6.30;;
3054;SDS011;1537;52.018;8.542;2022-12-18T15:36:46;7.83;;;6.40;;
3054;SDS011;1537;52.018;8.542;2022-12-18T15:40:14;11.13;;;7.40;;
3054;SDS011;1537;52.018;8.542;2022-12-18T15:43:41;10.80;;;7.63;;
3054;SDS011;1537;52.018;8.542;2022-12-18T15:47:10;10.90;;;6.03;;
3054;SDS011;1537;52.018;8.542;2022-12-18T15:50:37;11.23;;;6.97;;
3054;SDS011;1537;52.018;8.542;2022-12-18T15:54:01;7.43;;;6.10;;
3054;SDS011;1537;52.018;8.542;2022-12-18T15:57:26;12.90;;;6.80;;
3054;SDS011;1537;52.018;8.542;2022-12-18T16:00:49;10.60;;;7.73;;
3054;SDS011;1537;52.018;8.542;2022-12-18T16:04:14;7.77;;;5.33;;
3054;SDS011;1537;52.018;8.542;2022-12-18T16:07:40;14.37;;;7.10;;
3054;SDS011;1537;52.018;8.542;2022-12-18T16:11:04;9.87;;;6.87;;
3054;SDS011;1537;52.018;8.542;2022-12-18T16:14:29;12.80;;;6.80;;
3054;SDS011;1537;52.018;8.542;2022-12-18T16:17:54;10.90;;;7.10;;
3054;SDS011;1537;52.018;8.542;2022-12-18T16:21:18;16.47;;;8.30;;
3054;SDS011;1537;52.018;8.542;2022-12-18T16:24:43;13.93;;;7.27;;
3054;SDS011;1537;52.018;8.542;2022-12-18T16:28:07;19.43;;;9.93;;
3054;SDS011;1537;52.018;8.542;2022-12-18T16:31:31;11.60;;;7.50;;
3054;SDS011;1537;52.018;8.542;2022-12-18T16:34:59;11.30;;;7.50;;
3054;SDS011;1537;52.018;8.542;2022-12-18T16:38:22;10.77;;;6.13;;
3054;SDS011;1537;52.018;8.542;2022-12-18T16:41:47;11.10;;;5.60;;
3054;SDS011;1537;52.018;8.542;2022-12-18T16:45:12;11.50;;;7.57;;
3054;SDS011;1537;52.018;8.542;2022-12-18T16:48:38;15.33;;;7.30;;
3054;SDS011;1537;52.018;8.542;2022-12-18T16:52:02;13.63;;;7.47;;
3054;SDS011;1537;52.018;8.542;2022-12-18T16:55:26;10.57;;;7.67;;
3054;SDS011;1537;52.018;8.542;2022-12-18T16:58:52;9.10;;;6.83;;
3054;SDS011;1537;52.018;8.542;2022-12-18T17:02:18;14.13;;;9.23;;
3054;SDS011;1537;52.018;8.542;2022-12-18T17:05:44;14.43;;;9.03;;
3054;SDS011;1537;52.018;8.542;2022-12-18T17:09:14;14.40;;;8.53;;
3054;SDS011;1537;52.018;8.542;2022-12-18T17:12:40;15.10;;;9.67;;
3054;SDS011;1537;52.018;8.542;2022-12-18T17:16:06;15.67;;;8.50;;
3054;SDS011;1537;52.018;8.542;2022-12-18T17:19:32;11.73;;;8.47;;
3054;SDS011;1537;52.018;8.542;2022-12-18T17:22:58;12.03;;;8.40;;
3054;SDS011;1537;52.018;8.542;2022-12-18T17:26:23;15.13;;;8.63;;
3054;SDS011;1537;52.018;8.542;2022-12-18T17:29:47;18.70;;;9.57;;
3054;SDS011;1537;52.018;8.542;2022-12-18T17:33:12;14.20;;;8.10;;
3054;SDS011;1537;52.018;8.542;2022-12-18T17:36:37;12.70;;;7.47;;
3054;SDS011;1537;52.018;8.542;2022-12-18T17:40:02;13.70;;;8.60;;
3054;SDS011;1537;52.018;8.542;2022-12-18T17:43:27;14.90;;;9.60;;
3054;SDS011;1537;52.018;8.542;2022-12-18T17:46:50;13.20;;;9.17;;
3054;SDS011;1537;52.018;8.542;2022-12-18T17:50:16;14.47;;;9.90;;
3054;SDS011;1537;52.018;8.542;2022-12-18T17:53:40;17.10;;;10.00;;
3054;SDS011;1537;52.018;8.542;2022-12-18T17:57:05;16.70;;;9.97;;
3054;SDS011;1537;52.018;8.542;2022-12-18T18:00:29;14.40;;;8.13;;
3054;SDS011;1537;52.018;8.542;2022-12-18T18:04:00;15.93;;;9.33;;
3054;SDS011;1537;52.018;8.542;2022-12-18T18:07:27;13.30;;;9.00;;
3054;SDS011;1537;52.018;8.542;2022-12-18T18:10:51;17.53;;;9.90;;
3054;SDS011;1537;52.018;8.542;2022-12-18T18:14:15;13.20;;;8.53;;
3054;SDS011;1537;52.018;8.542;2022-12-18T18:17:40;13.47;;;9.67;;
3054;SDS011;1537;52.018;8.542;2022-12-18T18:21:04;16.63;;;10.33;;
3054;SDS011;1537;52.018;8.542;2022-12-18T18:24:29;14.17;;;10.03;;
3054;SDS011;1537;52.018;8.542;2022-12-18T18:27:55;15.40;;;9.90;;
3054;SDS011;1537;52.018;8.542;2022-12-18T18:31:18;20.17;;;10.00;;
3054;SDS011;1537;52.018;8.542;2022-12-18T18:34:45;16.80;;;10.00;;
3054;SDS011;1537;52.018;8.542;2022-12-18T18:38:09;14.30;;;10.67;;
3054;SDS011;1537;52.018;8.542;2022-12-18T18:41:34;16.37;;;10.67;;
3054;SDS011;1537;52.018;8.542;2022-12-18T18:44:58;17.83;;;11.10;;
3054;SDS011;1537;52.018;8.542;2022-12-18T18:48:22;13.03;;;8.43;;
3054;SDS011;1537;52.018;8.542;2022-12-18T18:51:49;19.37;;;11.90;;
3054;SDS011;1537;52.018;8.542;2022-12-18T18:55:13;18.40;;;11.30;;
3054;SDS011;1537;52.018;8.542;2022-12-18T18:58:48;21.27;;;13.50;;
3054;SDS011;1537;52.018;8.542;2022-12-18T19:02:12;19.60;;;12.40;;
3054;SDS011;1537;52.018;8.542;2022-12-18T19:05:37;21.10;;;13.67;;
3054;SDS011;1537;52.018;8.542;2022-12-18T19:09:08;15.93;;;10.43;;
3054;SDS011;1537;52.018;8.542;2022-12-18T19:12:33;19.37;;;12.20;;
3054;SDS011;1537;52.018;8.542;2022-12-18T19:16:17;20.87;;;12.60;;
3054;SDS011;1537;52.018;8.542;2022-12-18T19:19:44;17.87;;;10.23;;
3054;SDS011;1537;52.018;8.542;2022-12-18T19:23:08;27.27;;;15.47;;
3054;SDS011;1537;52.018;8.542;2022-12-18T19:26:32;20.43;;;12.60;;
3054;SDS011;1537;52.018;8.542;2022-12-18T19:30:00;23.60;;;13.90;;
3054;SDS011;1537;52.018;8.542;2022-12-18T19:33:26;21.90;;;14.63;;
3054;SDS011;1537;52.018;8.542;2022-12-18T19:37:06;23.50;;;12.47;;
3054;SDS011;1537;52.018;8.542;2022-12-18T19:40:29;19.50;;;11.07;;
3054;SDS011;1537;52.018;8.542;2022-12-18T19:43:53;28.27;;;14.80;;
3054;SDS011;1537;52.018;8.542;2022-12-18T19:47:17;24.50;;;14.27;;
3054;SDS011;1537;52.018;8.542;2022-12-18T19:50:42;14.10;;;10.40;;
3054;SDS011;1537;52.018;8.542;2022-12-18T19:54:06;23.73;;;12.47;;
3054;SDS011;1537;52.018;8.542;2022-12-18T19:57:37;15.30;;;10.00;;
3054;SDS011;1537;52.018;8.542;2022-12-18T20:01:01;14.97;;;10.60;;
3054;SDS011;1537;52.018;8.542;2022-12-18T20:04:32;22.40;;;15.40;;
3054;SDS011;1537;52.018;8.542;2022-12-18T20:07:57;26.93;;;13.37;;
3054;SDS011;1537;52.018;8.542;2022-12-18T20:11:21;19.93;;;12.70;;
3054;SDS011;1537;52.018;8.542;2022-12-18T20:14:45;21.83;;;13.97;;
3054;SDS011;1537;52.018;8.542;2022-12-18T20:18:09;28.90;;;18.40;;
3054;SDS011;1537;52.018;8.542;2022-12-18T20:21:33;28.17;;;16.37;;
3054;SDS011;1537;52.018;8.542;2022-12-18T20:24:58;23.20;;;11.93;;
3054;SDS011;1537;52.018;8.542;2022-12-18T20:28:22;26.37;;;16.90;;
3054;SDS011;1537;52.018;8.542;2022-12-18T20:31:46;27.83;;;18.43;;
3054;SDS011;1537;52.018;8.542;2022-12-18T20:35:10;19.40;;;13.80;;
3054;SDS011;1537;52.018;8.542;2022-12-18T20:38:35;23.70;;;13.53;;
3054;SDS011;1537;52.018;8.542;2022-12-18T20:42:01;23.27;;;14.83;;
3054;SDS011;1537;52.018;8.542;2022-12-18T20:45:26;19.87;;;14.60;;
3054;SDS011;1537;52.018;8.542;2022-12-18T20:48:50;26.80;;;19.43;;
3054;SDS011;1537;52.018;8.542;2022-12-18T20:52:16;26.07;;;13.97;;
3054;SDS011;1537;52.018;8.542;2022-12-18T20:55:41;21.83;;;13.47;;
3054;SDS011;1537;52.018;8.542;2022-12-18T20:59:07;27.30;;;15.20;;
3054;SDS011;1537;52.018;8.542;2022-12-18T21:02:33;28.70;;;17.27;;
3054;SDS011;1537;52.018;8.542;2022-12-18T21:05:56;25.73;;;14.20;;
3054;SDS011;1537;52.018;8.542;2022-12-18T21:09:20;20.03;;;10.47;;
3054;SDS011;1537;52.018;8.542;2022-12-18T21:12:44;29.03;;;17.60;;